createdAt,value
2023-04-20T00:01:13.497Z,30.25
2023-04-20T00:03:41.401Z,25.00
2023-04-20T00:06:09.316Z,25.00
2023-04-20T00:08:36.742Z,24.00
2023-04-20T00:11:04.234Z,24.50
2023-04-20T00:13:31.951Z,24.00
2023-04-20T00:15:59.394Z,21.25
2023-04-20T00:18:26.735Z,22.00
2023-04-20T00:20:54.257Z,13.00
2023-04-20T00:23:21.930Z,22.50
2023-04-20T00:25:49.762Z,20.50
2023-04-20T00:28:17.209Z,21.75
2023-04-20T00:30:44.594Z,22.25
2023-04-20T00:33:12.117Z,23.25
2023-04-20T00:35:39.508Z,19.50
2023-04-20T00:38:06.982Z,19.50
2023-04-20T00:40:35.478Z,16.75
2023-04-20T00:43:11.065Z,20.25
2023-04-20T00:45:38.726Z,20.75
2023-04-20T00:48:07.542Z,19.50
2023-04-20T00:50:35.669Z,19.50
2023-04-20T00:53:03.329Z,19.00
2023-04-20T00:55:31.249Z,19.50
2023-04-20T00:57:59.081Z,20.25
2023-04-20T01:00:27.526Z,21.75
2023-04-20T01:02:55.368Z,20.25
2023-04-20T01:05:23.210Z,19.50
2023-04-20T01:07:50.732Z,19.00
2023-04-20T01:10:18.168Z,17.75
2023-04-20T01:12:45.782Z,18.25
2023-04-20T01:15:13.172Z,14.50
2023-04-20T01:17:40.938Z,19.25
2023-04-20T01:20:12.649Z,17.50
2023-04-20T01:22:58.280Z,20.00
2023-04-20T01:25:25.691Z,22.50
2023-04-20T01:27:52.986Z,20.50
2023-04-20T01:30:20.476Z,22.25
2023-04-20T01:32:48.521Z,20.00
2023-04-20T01:35:16.303Z,23.00
2023-04-20T01:37:43.754Z,18.50
2023-04-20T01:40:13.033Z,20.00
2023-04-20T01:42:41.231Z,18.50
2023-04-20T01:45:09.282Z,22.50
2023-04-20T01:47:37.264Z,21.00
2023-04-20T01:50:04.899Z,21.50
2023-04-20T01:52:32.468Z,23.50
2023-04-20T01:54:59.884Z,22.50
2023-04-20T01:57:27.236Z,18.00
2023-04-20T01:59:54.746Z,23.00
2023-04-20T02:02:22.238Z,22.00
2023-04-20T02:04:49.927Z,22.50
2023-04-20T02:07:17.325Z,18.50
2023-04-20T02:09:45.016Z,21.50
2023-04-20T02:12:12.414Z,20.00
2023-04-20T02:14:39.763Z,13.50
2023-04-20T02:17:07.733Z,14.00
2023-04-20T02:19:35.294Z,18.25
2023-04-20T02:22:02.908Z,18.00
2023-04-20T02:24:30.544Z,20.75
2023-04-20T02:26:58.821Z,19.75
2023-04-20T02:29:26.158Z,20.00
2023-04-20T02:31:53.567Z,21.50
2023-04-20T02:34:21.000Z,20.00
2023-04-20T02:36:48.988Z,19.75
2023-04-20T02:39:16.686Z,19.50
2023-04-20T02:41:44.198Z,21.25
2023-04-20T02:44:11.540Z,21.75
2023-04-20T02:46:38.973Z,20.75
2023-04-20T02:49:06.369Z,19.75
2023-04-20T02:51:34.201Z,20.00
2023-04-20T02:54:01.605Z,20.75
2023-04-20T02:56:29.089Z,18.50
2023-04-20T02:58:56.475Z,20.00
2023-04-20T03:01:23.908Z,19.75
2023-04-20T03:03:51.931Z,19.75
2023-04-20T03:06:19.523Z,1.50
2023-04-20T03:08:46.953Z,21.25
2023-04-20T03:11:14.601Z,21.75
2023-04-20T03:13:42.287Z,17.50
2023-04-20T03:16:09.690Z,21.00
2023-04-20T03:18:37.421Z,15.50
2023-04-20T03:21:05.096Z,21.25
2023-04-20T03:23:33.645Z,21.75
2023-04-20T03:26:01.781Z,15.50
2023-04-20T03:28:29.612Z,21.00
2023-04-20T03:30:56.958Z,19.50
2023-04-20T03:33:24.415Z,22.50
2023-04-20T03:35:51.764Z,22.50
2023-04-20T03:38:19.321Z,21.25
2023-04-20T03:40:46.668Z,22.75
2023-04-20T03:43:14.084Z,23.00
2023-04-20T03:45:41.983Z,23.00
2023-04-20T03:48:09.445Z,23.00
2023-04-20T03:50:36.888Z,21.75
2023-04-20T03:53:04.278Z,23.00
2023-04-20T03:55:31.699Z,19.25
2023-04-20T03:57:59.048Z,21.75
2023-04-20T04:00:26.901Z,21.00
2023-04-20T04:02:54.581Z,23.25
2023-04-20T04:05:22.267Z,19.75
2023-04-20T04:07:49.805Z,21.75
2023-04-20T04:10:19.086Z,24.00
2023-04-20T04:12:46.654Z,22.50
2023-04-20T04:15:14.147Z,22.25
2023-04-20T04:17:41.566Z,20.00
2023-04-20T04:20:09.397Z,20.50
2023-04-20T04:22:36.903Z,19.25
2023-04-20T04:25:05.304Z,18.25
2023-04-20T04:27:35.030Z,18.75
2023-04-20T04:30:02.828Z,19.50
2023-04-20T04:32:31.311Z,19.25
2023-04-20T04:35:00.857Z,17.75
2023-04-20T04:37:28.245Z,14.75
2023-04-20T04:39:58.304Z,14.33
2023-04-20T04:42:26.001Z,22.00
2023-04-20T04:44:53.641Z,15.50
2023-04-20T04:47:22.214Z,33.00
2023-04-20T04:49:50.250Z,28.25
2023-04-20T04:52:17.712Z,17.00
2023-04-20T04:54:45.298Z,16.00
2023-04-20T04:57:13.007Z,15.00
2023-04-20T04:59:40.991Z,15.50
2023-04-20T05:02:08.476Z,14.00
2023-04-20T05:04:36.425Z,11.67
2023-04-20T05:07:03.991Z,11.67
2023-04-20T05:09:33.916Z,11.00
2023-04-20T05:12:01.380Z,12.67
2023-04-20T05:14:30.201Z,11.25
2023-04-20T05:16:59.021Z,11.00
2023-04-20T05:19:26.432Z,10.00
2023-04-20T05:21:53.843Z,8.33
2023-04-20T05:24:21.361Z,10.67
2023-04-20T05:26:48.694Z,8.33
2023-04-20T05:29:17.433Z,9.67
2023-04-20T05:31:45.527Z,11.67
2023-04-20T05:34:12.963Z,10.00
2023-04-20T05:36:41.322Z,11.00
2023-04-20T05:39:08.869Z,13.00
2023-04-20T05:41:36.396Z,12.00
2023-04-20T05:44:03.991Z,12.00
2023-04-20T05:46:31.682Z,10.00
2023-04-20T05:48:59.042Z,12.00
2023-04-20T05:51:29.124Z,9.67
2023-04-20T05:53:56.467Z,9.67
2023-04-20T05:56:23.845Z,11.00
2023-04-20T05:58:52.162Z,12.67
2023-04-20T06:01:19.623Z,12.00
2023-04-20T06:03:50.395Z,12.00
2023-04-20T06:06:17.941Z,14.50
2023-04-20T06:08:45.551Z,15.00
2023-04-20T06:11:13.003Z,23.00
2023-04-20T06:13:40.396Z,14.00
2023-04-20T06:16:09.784Z,16.00
2023-04-20T06:18:37.694Z,15.00
2023-04-20T06:21:05.187Z,14.00
2023-04-20T06:23:32.828Z,12.75
2023-04-20T06:26:00.612Z,15.75
2023-04-20T06:28:27.996Z,17.50
2023-04-20T06:30:56.332Z,10.75
2023-04-20T06:33:23.701Z,12.00
2023-04-20T06:35:51.721Z,19.25
2023-04-20T06:38:19.170Z,22.00
2023-04-20T06:40:46.793Z,20.75
2023-04-20T06:43:14.495Z,20.75
2023-04-20T06:45:41.974Z,17.00
2023-04-20T06:48:20.179Z,18.50
2023-04-20T06:50:56.710Z,14.00
2023-04-20T06:53:24.136Z,13.67
2023-04-20T06:55:54.743Z,16.00
2023-04-20T06:58:22.156Z,16.00
2023-04-20T07:00:49.605Z,17.33
2023-04-20T07:03:19.337Z,17.75
2023-04-20T07:05:47.225Z,16.33
2023-04-20T07:08:16.011Z,19.00
2023-04-20T07:10:43.790Z,19.67
2023-04-20T07:13:11.309Z,9.00
2023-04-20T07:15:38.760Z,15.00
2023-04-20T07:18:06.516Z,13.67
2023-04-20T07:20:33.993Z,17.33
2023-04-20T07:23:01.829Z,16.67
2023-04-20T07:25:31.608Z,14.00
2023-04-20T07:27:59.137Z,19.00
2023-04-20T07:30:26.665Z,14.33
2023-04-20T07:32:54.093Z,19.00
2023-04-20T07:35:21.882Z,17.00
2023-04-20T07:37:49.343Z,13.50
2023-04-20T07:40:17.085Z,15.33
2023-04-20T07:42:44.506Z,14.33
2023-04-20T07:45:13.132Z,14.75
2023-04-20T07:47:41.225Z,18.00
2023-04-20T07:50:08.992Z,16.25
2023-04-20T07:52:37.287Z,20.67
2023-04-20T07:55:06.161Z,24.00
2023-04-20T07:57:35.353Z,20.00
2023-04-20T08:00:06.039Z,21.00
2023-04-20T08:02:34.110Z,18.33
2023-04-20T08:05:03.358Z,19.00
2023-04-20T08:07:31.831Z,22.25
2023-04-20T08:10:00.620Z,21.00
2023-04-20T08:12:28.209Z,23.25
2023-04-20T08:15:00.030Z,23.25
2023-04-20T08:17:30.827Z,27.00
2023-04-20T08:19:58.259Z,27.67
2023-04-20T08:22:29.911Z,33.00
2023-04-20T08:24:58.039Z,33.00
2023-04-20T08:27:26.357Z,40.25
2023-04-20T08:29:53.712Z,38.00
2023-04-20T08:32:22.840Z,45.50
2023-04-20T08:34:50.640Z,46.75
2023-04-20T08:37:18.106Z,56.00
2023-04-20T08:39:45.830Z,59.00
2023-04-20T08:42:13.318Z,57.00
2023-04-20T08:44:40.948Z,51.50
2023-04-20T08:47:12.141Z,53.00
2023-04-20T08:49:39.982Z,53.25
2023-04-20T08:52:10.959Z,51.00
2023-04-20T08:54:46.010Z,52.50
2023-04-20T08:57:21.057Z,51.25
2023-04-20T08:59:48.410Z,30.00
2023-04-20T09:02:16.220Z,19.25
2023-04-20T09:04:43.799Z,17.00
2023-04-20T09:07:21.620Z,11.50
2023-04-20T09:09:56.470Z,11.25
2023-04-20T09:12:24.861Z,6.00
2023-04-20T09:14:53.137Z,6.00
2023-04-20T09:17:35.287Z,15.25
2023-04-20T09:20:03.147Z,29.00
2023-04-20T09:22:36.369Z,28.50
2023-04-20T09:25:17.467Z,19.00
2023-04-20T09:27:59.477Z,19.75
2023-04-20T09:30:41.658Z,20.50
2023-04-20T09:33:12.135Z,22.00
2023-04-20T09:35:40.624Z,11.75
2023-04-20T09:38:09.221Z,20.00
2023-04-20T09:40:36.982Z,18.00
2023-04-20T09:43:10.328Z,19.50
2023-04-20T09:45:38.937Z,20.00
2023-04-20T09:48:07.900Z,19.25
2023-04-20T09:50:48.383Z,20.00
2023-04-20T09:53:17.959Z,16.00
2023-04-20T09:55:49.858Z,24.50
2023-04-20T09:58:20.454Z,15.00
2023-04-20T10:00:48.152Z,10.50
2023-04-20T10:03:20.522Z,17.50
2023-04-20T10:05:48.326Z,16.75
2023-04-20T10:08:15.937Z,20.00
2023-04-20T10:10:51.431Z,18.00
2023-04-20T10:13:23.347Z,19.25
2023-04-20T10:15:50.816Z,18.00
2023-04-20T10:18:25.207Z,19.00
2023-04-20T10:21:06.072Z,14.75
2023-04-20T10:23:34.372Z,14.00
2023-04-20T10:26:02.757Z,13.25
2023-04-20T10:28:41.735Z,11.50
2023-04-20T10:31:13.223Z,11.00
2023-04-20T10:33:55.340Z,13.25
2023-04-20T10:36:28.843Z,12.75
2023-04-20T10:38:56.600Z,12.00
2023-04-20T10:41:24.643Z,11.00
2023-04-20T10:43:52.221Z,8.00
2023-04-20T10:46:22.198Z,11.25
2023-04-20T10:48:53.702Z,7.75
2023-04-20T10:51:21.997Z,6.50
2023-04-20T10:54:08.472Z,6.75
2023-04-20T10:56:46.370Z,7.25
2023-04-20T10:59:16.302Z,8.00
2023-04-20T11:01:44.935Z,8.25
2023-04-20T11:04:12.989Z,6.75
2023-04-20T11:06:42.876Z,9.50
2023-04-20T11:09:38.524Z,9.00
2023-04-20T11:12:12.061Z,12.25
2023-04-20T11:14:54.347Z,8.25
2023-04-20T11:17:32.918Z,15.00
2023-04-20T11:20:14.476Z,15.00
2023-04-20T11:22:43.665Z,20.00
2023-04-20T11:25:12.597Z,25.00
2023-04-20T11:27:41.024Z,21.00
2023-04-20T11:30:09.147Z,20.75
2023-04-20T11:32:38.265Z,17.75
2023-04-20T11:35:09.491Z,19.25
2023-04-20T11:37:57.640Z,21.50
2023-04-20T11:40:28.024Z,15.75
2023-04-20T11:42:56.322Z,18.00
2023-04-20T11:45:24.328Z,16.50
2023-04-20T11:47:52.768Z,18.00
2023-04-20T11:50:21.302Z,14.00
2023-04-20T11:52:49.001Z,12.25
2023-04-20T11:55:16.647Z,16.00
2023-04-20T11:57:44.066Z,19.75
2023-04-20T12:00:13.228Z,17.00
2023-04-20T12:02:41.239Z,20.75
2023-04-20T12:05:09.696Z,17.75
2023-04-20T12:07:37.663Z,17.75
2023-04-20T12:10:07.371Z,17.00
2023-04-20T12:12:34.907Z,14.00
2023-04-20T12:15:02.395Z,13.50
2023-04-20T12:17:30.200Z,15.25
2023-04-20T12:19:58.055Z,13.50
2023-04-20T12:22:25.600Z,12.60
2023-04-20T12:24:52.962Z,15.40
2023-04-20T12:27:20.563Z,19.00
2023-04-20T12:29:48.613Z,18.60
2023-04-20T12:32:16.044Z,18.20
2023-04-20T12:34:43.578Z,20.40
2023-04-20T12:37:11.217Z,14.20
2023-04-20T12:39:38.621Z,16.20
2023-04-20T12:42:06.112Z,20.60
2023-04-20T12:44:33.892Z,17.20
2023-04-20T12:47:01.357Z,8.80
2023-04-20T12:49:28.811Z,5.40
2023-04-20T12:51:56.393Z,5.20
2023-04-20T12:54:23.813Z,6.00
2023-04-20T12:56:51.748Z,5.00
2023-04-20T12:59:19.343Z,6.20
2023-04-20T13:01:46.884Z,5.00
2023-04-20T13:04:16.221Z,3.40
2023-04-20T13:06:44.069Z,6.00
2023-04-20T13:09:11.750Z,5.40
2023-04-20T13:11:39.259Z,5.20
2023-04-20T13:14:06.638Z,5.20
2023-04-20T13:16:34.124Z,2.40
2023-04-20T13:19:01.703Z,4.80
2023-04-20T13:21:29.179Z,4.00
2023-04-20T13:23:57.068Z,4.80
2023-04-20T13:26:24.595Z,3.80
2023-04-20T13:28:52.297Z,5.80
2023-04-20T13:31:19.683Z,4.00
2023-04-20T13:33:47.072Z,6.00
2023-04-20T13:36:15.739Z,4.00
2023-04-20T13:38:43.185Z,5.80
2023-04-20T13:41:10.640Z,6.40
2023-04-20T13:43:38.465Z,4.40
2023-04-20T13:46:06.168Z,5.20
2023-04-20T13:48:34.533Z,7.00
2023-04-20T13:51:01.928Z,5.20
2023-04-20T13:53:30.052Z,3.00
2023-04-20T13:55:58.042Z,5.60
2023-04-20T13:58:28.771Z,7.60
2023-04-20T14:00:56.286Z,6.00
2023-04-20T14:03:26.001Z,7.00
2023-04-20T14:05:53.780Z,6.20
2023-04-20T14:08:23.434Z,7.00
2023-04-20T14:10:51.211Z,8.20
2023-04-20T14:13:18.694Z,5.00
2023-04-20T14:15:46.296Z,4.60
2023-04-20T14:18:14.247Z,5.80
2023-04-20T14:20:41.764Z,6.00
2023-04-20T14:23:09.691Z,6.40
2023-04-20T14:25:37.431Z,6.60
2023-04-20T14:28:05.143Z,4.00
2023-04-20T14:30:33.699Z,6.75
2023-04-20T14:33:01.381Z,6.00
2023-04-20T14:35:29.103Z,9.75
2023-04-20T14:37:56.557Z,7.50
2023-04-20T14:40:24.280Z,6.75
2023-04-20T14:42:51.670Z,8.00
2023-04-20T14:45:19.287Z,10.00
2023-04-20T14:47:46.998Z,23.50
2023-04-20T14:50:14.395Z,10.75
2023-04-20T14:52:41.809Z,12.50
2023-04-20T14:55:09.372Z,9.25
2023-04-20T14:57:36.774Z,10.00
2023-04-20T15:00:06.006Z,10.25
2023-04-20T15:02:33.877Z,9.50
2023-04-20T15:05:02.172Z,12.25
2023-04-20T15:07:30.015Z,12.75
2023-04-20T15:09:57.440Z,11.00
2023-04-20T15:12:24.846Z,12.00
2023-04-20T15:14:52.190Z,13.50
2023-04-20T15:17:19.697Z,11.00
2023-04-20T15:19:47.187Z,11.75
2023-04-20T15:22:14.994Z,13.00
2023-04-20T15:24:42.455Z,14.25
2023-04-20T15:27:10.111Z,17.00
2023-04-20T15:29:37.554Z,19.25
2023-04-20T15:32:05.521Z,20.75
2023-04-20T15:34:33.429Z,19.75
2023-04-20T15:37:01.145Z,19.75
2023-04-20T15:39:28.696Z,18.75
2023-04-20T15:41:56.076Z,20.50
2023-04-20T15:44:24.498Z,20.00
2023-04-20T15:46:51.921Z,16.75
2023-04-20T15:49:20.622Z,16.00
2023-04-20T15:51:48.091Z,16.50
2023-04-20T15:54:15.913Z,19.50
2023-04-20T15:56:43.449Z,16.50
2023-04-20T15:59:10.859Z,16.75
2023-04-20T16:01:38.352Z,17.00
2023-04-20T16:04:06.280Z,18.75
2023-04-20T16:06:33.771Z,18.75
2023-04-20T16:09:01.356Z,17.50
2023-04-20T16:11:28.759Z,20.00
2023-04-20T16:13:57.845Z,21.25
2023-04-20T16:16:25.770Z,20.25
2023-04-20T16:18:55.122Z,19.00
2023-04-20T16:21:23.458Z,20.25
2023-04-20T16:23:55.334Z,20.50
2023-04-20T16:26:24.263Z,23.00
2023-04-20T16:28:52.249Z,24.33
2023-04-20T16:31:20.232Z,23.50
2023-04-20T16:33:47.745Z,22.75
2023-04-20T16:36:16.579Z,23.00
2023-04-20T16:38:43.971Z,22.75
2023-04-20T16:41:11.391Z,22.75
2023-04-20T16:43:38.807Z,22.25
2023-04-20T16:46:06.252Z,22.00
2023-04-20T16:48:33.822Z,22.33
2023-04-20T16:51:01.235Z,19.75
2023-04-20T16:53:28.833Z,20.75
2023-04-20T16:55:56.198Z,27.33
2023-04-20T16:58:23.850Z,20.33
2023-04-20T17:00:51.263Z,24.00
2023-04-20T17:03:18.927Z,22.00
2023-04-20T17:05:46.755Z,22.00
2023-04-20T17:08:14.412Z,22.67
2023-04-20T17:10:42.021Z,24.00
2023-04-20T17:13:09.449Z,23.33
2023-04-20T17:15:37.031Z,20.50
2023-04-20T17:18:04.787Z,20.33
2023-04-20T17:20:32.427Z,19.50
2023-04-20T17:22:59.803Z,21.33
2023-04-20T17:25:27.182Z,21.00
2023-04-20T17:27:54.681Z,19.50
2023-04-20T17:30:22.149Z,18.25
2023-04-20T17:32:49.491Z,19.67
2023-04-20T17:35:17.037Z,22.00
2023-04-20T17:37:44.797Z,20.00
2023-04-20T17:40:12.528Z,21.33
2023-04-20T17:42:39.982Z,22.00
2023-04-20T17:45:07.812Z,21.67
2023-04-20T17:47:35.635Z,21.00
2023-04-20T17:50:04.745Z,23.00
2023-04-20T17:52:32.809Z,30.25
2023-04-20T17:55:00.414Z,26.00
2023-04-20T17:57:28.747Z,25.00
2023-04-20T17:59:56.135Z,21.33
2023-04-20T18:02:25.038Z,24.00
2023-04-20T18:04:52.727Z,26.00
2023-04-20T18:07:20.435Z,24.67
2023-04-20T18:09:47.870Z,25.00
2023-04-20T18:12:15.351Z,27.50
2023-04-20T18:14:42.758Z,27.75
2023-04-20T18:17:10.352Z,26.75
2023-04-20T18:19:37.783Z,26.00
2023-04-20T18:22:05.176Z,24.00
2023-04-20T18:24:33.527Z,27.00
2023-04-20T18:27:01.341Z,25.50
2023-04-20T18:29:29.898Z,25.75
2023-04-20T18:31:59.482Z,26.50
2023-04-20T18:34:32.147Z,27.00
2023-04-20T18:36:59.731Z,24.00
2023-04-20T18:39:27.205Z,22.00
2023-04-20T18:41:54.622Z,20.33
2023-04-20T18:44:22.499Z,20.67
2023-04-20T18:46:50.116Z,18.75
2023-04-20T18:49:17.502Z,20.00
2023-04-20T18:51:45.046Z,13.75
2023-04-20T18:54:12.580Z,14.50
2023-04-20T18:56:39.940Z,19.00
2023-04-20T18:59:08.676Z,18.25
2023-04-20T19:01:40.680Z,17.50
2023-04-20T19:04:08.856Z,18.25
2023-04-20T19:06:37.108Z,15.33
2023-04-20T19:09:07.323Z,18.50
2023-04-20T19:11:35.884Z,19.75
2023-04-20T19:14:03.473Z,16.75
2023-04-20T19:16:32.246Z,13.00
2023-04-20T19:19:00.287Z,18.00
2023-04-20T19:21:27.756Z,18.00
2023-04-20T19:23:56.348Z,17.25
2023-04-20T19:26:24.321Z,16.00
2023-04-20T19:28:51.983Z,17.50
2023-04-20T19:31:19.602Z,15.00
2023-04-20T19:33:47.196Z,17.50
2023-04-20T19:36:14.601Z,15.50
2023-04-20T19:38:42.058Z,15.00
2023-04-20T19:41:09.832Z,19.00
2023-04-20T19:43:37.711Z,18.00
2023-04-20T19:46:07.993Z,18.25
2023-04-20T19:48:36.779Z,17.25
2023-04-20T19:51:05.903Z,14.00
2023-04-20T19:53:34.145Z,11.00
2023-04-20T19:56:02.327Z,13.75
2023-04-20T19:58:30.851Z,15.00
2023-04-20T20:00:59.630Z,14.50
2023-04-20T20:03:27.593Z,15.00
2023-04-20T20:05:55.207Z,13.50
2023-04-20T20:08:22.668Z,13.75
2023-04-20T20:10:50.246Z,14.50
2023-04-20T20:13:17.651Z,12.75
2023-04-20T20:15:45.190Z,13.75
2023-04-20T20:18:12.810Z,16.00
2023-04-20T20:20:40.327Z,11.75
2023-04-20T20:23:07.889Z,15.75
2023-04-20T20:25:35.553Z,12.50
2023-04-20T20:28:03.503Z,12.75
2023-04-20T20:30:31.321Z,14.50
2023-04-20T20:33:01.494Z,12.00
2023-04-20T20:35:33.509Z,12.00
2023-04-20T20:38:00.915Z,10.00
2023-04-20T20:40:28.486Z,12.50
2023-04-20T20:42:56.920Z,14.00
2023-04-20T20:45:24.405Z,13.67
2023-04-20T20:47:51.923Z,15.50
2023-04-20T20:50:20.219Z,14.50
2023-04-20T20:52:47.618Z,12.33
2023-04-20T20:55:15.152Z,18.00
2023-04-20T20:57:42.579Z,18.00
2023-04-20T21:00:12.073Z,16.00
2023-04-20T21:02:39.915Z,14.67
2023-04-20T21:05:07.582Z,9.33
2023-04-20T21:07:35.848Z,17.00
2023-04-20T21:10:03.712Z,13.00
2023-04-20T21:12:31.905Z,17.00
2023-04-20T21:14:59.404Z,17.00
2023-04-20T21:17:27.142Z,16.00
2023-04-20T21:19:54.624Z,14.67
2023-04-20T21:22:22.747Z,16.25
2023-04-20T21:24:50.191Z,14.75
2023-04-20T21:27:17.608Z,14.50
2023-04-20T21:29:45.036Z,14.00
2023-04-20T21:32:12.458Z,14.00
2023-04-20T21:34:39.932Z,13.75
2023-04-20T21:37:07.350Z,11.50
2023-04-20T21:39:34.907Z,13.25
2023-04-20T21:42:03.585Z,10.25
2023-04-20T21:44:32.034Z,12.00
2023-04-20T21:47:02.466Z,12.00
2023-04-20T21:49:30.312Z,13.75
2023-04-20T21:51:57.695Z,13.00
2023-04-20T21:54:25.114Z,11.75
2023-04-20T21:56:52.686Z,13.67
2023-04-20T21:59:20.395Z,17.00
2023-04-20T22:01:48.130Z,11.75
2023-04-20T22:04:17.263Z,13.00
2023-04-20T22:06:45.067Z,12.50
2023-04-20T22:09:13.490Z,11.50
2023-04-20T22:11:41.157Z,15.00
2023-04-20T22:14:08.608Z,14.00
2023-04-20T22:16:36.168Z,1.00
2023-04-20T22:19:04.425Z,12.00
2023-04-20T22:21:32.932Z,13.75
2023-04-20T22:24:00.558Z,17.33
2023-04-20T22:26:27.945Z,8.75
2023-04-20T22:28:55.538Z,13.33
2023-04-20T22:31:23.034Z,12.25
2023-04-20T22:33:50.648Z,10.67
2023-04-20T22:36:18.598Z,11.50
2023-04-20T22:38:46.072Z,11.75
2023-04-20T22:41:14.766Z,12.67
2023-04-20T22:43:44.100Z,15.00
2023-04-20T22:46:11.717Z,10.00
2023-04-20T22:48:40.795Z,14.00
2023-04-20T22:51:08.366Z,11.75
2023-04-20T22:53:35.878Z,14.75
2023-04-20T22:56:05.295Z,15.00
2023-04-20T22:58:33.029Z,13.00
2023-04-20T23:01:00.544Z,13.25
2023-04-20T23:03:28.172Z,14.50
2023-04-20T23:05:57.728Z,14.00
2023-04-20T23:08:26.217Z,14.00
2023-04-20T23:10:56.731Z,13.00
2023-04-20T23:13:26.403Z,12.25
2023-04-20T23:15:54.074Z,13.25
2023-04-20T23:18:21.649Z,13.50
2023-04-20T23:20:49.127Z,11.00
2023-04-20T23:23:17.504Z,10.00
2023-04-20T23:25:44.967Z,12.00
2023-04-20T23:28:12.300Z,11.00
2023-04-20T23:30:39.792Z,8.25
2023-04-20T23:33:07.334Z,12.00
2023-04-20T23:35:34.860Z,11.00
2023-04-20T23:38:04.224Z,14.00
2023-04-20T23:40:31.992Z,14.50
2023-04-20T23:42:59.479Z,12.00
2023-04-20T23:45:26.985Z,14.50
2023-04-20T23:47:54.426Z,14.00
2023-04-20T23:50:21.952Z,15.00
2023-04-20T23:52:49.817Z,14.75
2023-04-20T23:55:17.221Z,13.00
2023-04-20T23:57:46.648Z,13.25
